createdAt,value
2023-07-31T00:02:22.410Z,5.22
2023-07-31T00:04:50.143Z,4.95
2023-07-31T00:07:17.552Z,5.03
2023-07-31T00:09:44.927Z,5.97
2023-07-31T00:12:12.640Z,5.20
2023-07-31T00:14:40.029Z,5.40
2023-07-31T00:17:07.431Z,6.28
2023-07-31T00:19:35.140Z,6.47
2023-07-31T00:22:02.552Z,5.12
2023-07-31T00:24:29.948Z,5.50
2023-07-31T00:26:57.758Z,5.82
2023-07-31T00:29:25.178Z,5.72
2023-07-31T00:31:52.602Z,5.85
2023-07-31T00:34:20.277Z,5.75
2023-07-31T00:36:47.689Z,4.78
2023-07-31T00:39:18.032Z,4.50
2023-07-31T00:41:46.141Z,5.62
2023-07-31T00:44:13.533Z,5.62
2023-07-31T00:46:41.191Z,6.00
2023-07-31T00:49:09.075Z,5.22
2023-07-31T00:51:36.434Z,5.07
2023-07-31T00:54:04.159Z,5.50
2023-07-31T00:56:31.903Z,4.85
2023-07-31T00:58:59.300Z,5.25
2023-07-31T01:01:26.777Z,4.78
2023-07-31T01:03:57.420Z,5.50
2023-07-31T01:06:49.377Z,4.82
2023-07-31T01:09:40.265Z,4.72
2023-07-31T01:12:08.107Z,5.47
2023-07-31T01:14:36.190Z,5.22
2023-07-31T01:17:03.638Z,4.70
2023-07-31T01:19:31.712Z,5.40
2023-07-31T01:22:24.403Z,5.20
2023-07-31T01:25:06.554Z,5.25
2023-07-31T01:27:37.156Z,4.57
2023-07-31T01:30:15.308Z,4.28
2023-07-31T01:32:44.027Z,4.80
2023-07-31T01:35:11.477Z,4.75
2023-07-31T01:37:38.894Z,5.10
2023-07-31T01:40:07.333Z,4.60
2023-07-31T01:42:34.753Z,5.22
2023-07-31T01:45:02.188Z,5.37
2023-07-31T01:47:29.935Z,5.25
2023-07-31T01:49:57.336Z,4.25
2023-07-31T01:52:24.999Z,4.95
2023-07-31T01:54:53.093Z,4.93
2023-07-31T01:57:20.464Z,4.70
2023-07-31T01:59:47.900Z,5.28
2023-07-31T02:02:15.614Z,4.75
2023-07-31T02:04:43.321Z,5.15
2023-07-31T02:07:10.684Z,4.07
2023-07-31T02:09:38.072Z,4.70
2023-07-31T02:12:06.165Z,4.28
2023-07-31T02:14:33.512Z,3.28
2023-07-31T02:17:00.921Z,4.07
2023-07-31T02:19:28.620Z,3.65
2023-07-31T02:21:56.053Z,3.80
2023-07-31T02:24:24.806Z,4.30
2023-07-31T02:26:52.481Z,3.30
2023-07-31T02:29:19.884Z,3.50
2023-07-31T02:31:47.297Z,3.22
2023-07-31T02:34:15.024Z,3.60
2023-07-31T02:36:43.052Z,3.05
2023-07-31T02:39:10.433Z,3.12
2023-07-31T02:41:38.146Z,3.53
2023-07-31T02:44:05.582Z,3.80
2023-07-31T02:46:32.972Z,3.62
2023-07-31T02:49:00.706Z,3.55
2023-07-31T02:51:28.254Z,3.65
2023-07-31T02:53:55.703Z,3.05
2023-07-31T02:56:23.451Z,3.67
2023-07-31T02:58:50.870Z,3.42
2023-07-31T03:01:18.369Z,3.08
2023-07-31T03:03:46.133Z,3.37
2023-07-31T03:06:13.529Z,3.17
2023-07-31T03:08:40.898Z,3.65
2023-07-31T03:11:08.572Z,3.75
2023-07-31T03:13:35.939Z,3.25
2023-07-31T03:16:03.462Z,2.97
2023-07-31T03:18:31.316Z,3.25
2023-07-31T03:20:58.716Z,3.35
2023-07-31T03:23:26.858Z,4.28
2023-07-31T03:26:01.504Z,3.50
2023-07-31T03:28:29.285Z,3.33
2023-07-31T03:30:57.133Z,2.80
2023-07-31T03:33:24.529Z,3.10
2023-07-31T03:35:52.092Z,2.92
2023-07-31T03:38:19.965Z,3.30
2023-07-31T03:40:47.388Z,3.67
2023-07-31T03:43:14.806Z,3.15
2023-07-31T03:45:43.833Z,3.30
2023-07-31T03:48:12.383Z,3.10
2023-07-31T03:50:39.814Z,3.00
2023-07-31T03:53:07.520Z,3.40
2023-07-31T03:55:34.928Z,2.97
2023-07-31T03:58:02.353Z,4.70
2023-07-31T04:00:30.034Z,3.70
2023-07-31T04:02:57.734Z,2.90
2023-07-31T04:05:25.271Z,3.37
2023-07-31T04:07:52.678Z,3.20
2023-07-31T04:10:20.402Z,3.00
2023-07-31T04:12:47.833Z,3.10
2023-07-31T04:15:15.251Z,3.72
2023-07-31T04:17:43.230Z,3.50
2023-07-31T04:20:11.219Z,5.37
2023-07-31T04:22:38.656Z,4.97
2023-07-31T04:25:06.722Z,4.07
2023-07-31T04:27:34.125Z,4.28
2023-07-31T04:30:01.578Z,3.70
2023-07-31T04:32:30.788Z,3.92
2023-07-31T04:34:58.213Z,4.30
2023-07-31T04:37:25.586Z,3.50
2023-07-31T04:39:53.241Z,3.90
2023-07-31T04:42:20.645Z,3.62
2023-07-31T04:44:48.082Z,3.25
2023-07-31T04:47:15.758Z,4.65
2023-07-31T04:49:43.191Z,3.53
2023-07-31T04:52:10.562Z,3.60
2023-07-31T04:54:38.229Z,4.10
2023-07-31T04:57:07.664Z,4.22
2023-07-31T04:59:35.210Z,3.85
2023-07-31T05:02:02.937Z,3.78
2023-07-31T05:04:30.365Z,4.35
2023-07-31T05:06:57.828Z,4.72
2023-07-31T05:09:25.508Z,4.70
2023-07-31T05:11:52.870Z,4.80
2023-07-31T05:14:21.375Z,5.70
2023-07-31T05:16:49.110Z,4.90
2023-07-31T05:19:16.556Z,5.32
2023-07-31T05:21:43.993Z,6.35
2023-07-31T05:24:11.741Z,6.07
2023-07-31T05:26:39.535Z,5.95
2023-07-31T05:29:07.040Z,5.95
2023-07-31T05:31:34.692Z,6.57
2023-07-31T05:34:02.103Z,6.35
2023-07-31T05:36:29.500Z,6.35
2023-07-31T05:38:57.165Z,7.18
2023-07-31T05:41:24.625Z,6.62
2023-07-31T05:43:52.675Z,7.03
2023-07-31T05:46:20.423Z,7.30
2023-07-31T05:48:47.856Z,6.90
2023-07-31T05:51:15.262Z,7.35
2023-07-31T05:53:42.996Z,7.50
2023-07-31T05:56:10.359Z,6.85
2023-07-31T05:58:37.760Z,7.28
2023-07-31T06:01:05.506Z,7.40
2023-07-31T06:03:33.269Z,7.47
2023-07-31T06:06:00.985Z,8.15
2023-07-31T06:08:28.396Z,7.93
2023-07-31T06:10:56.164Z,7.72
2023-07-31T06:13:23.528Z,8.75
2023-07-31T06:15:51.021Z,8.48
2023-07-31T06:18:18.721Z,7.97
2023-07-31T06:20:46.150Z,8.88
2023-07-31T06:23:13.568Z,8.20
2023-07-31T06:25:41.235Z,7.80
2023-07-31T06:28:08.633Z,9.10
2023-07-31T06:30:36.074Z,8.80
2023-07-31T06:33:03.998Z,8.15
2023-07-31T06:35:31.535Z,8.65
2023-07-31T06:37:58.879Z,8.48
2023-07-31T06:40:26.636Z,9.40
2023-07-31T06:42:54.049Z,8.98
2023-07-31T06:45:21.506Z,8.68
2023-07-31T06:47:49.235Z,8.05
2023-07-31T06:50:16.734Z,8.07
2023-07-31T06:52:44.317Z,8.63
2023-07-31T06:55:21.715Z,7.82
2023-07-31T06:57:49.464Z,8.02
2023-07-31T07:00:17.790Z,8.10
2023-07-31T07:02:45.313Z,8.05
2023-07-31T07:05:12.848Z,7.90
2023-07-31T07:07:40.558Z,8.50
2023-07-31T07:10:08.433Z,8.60
2023-07-31T07:12:36.624Z,7.70
2023-07-31T07:15:04.550Z,8.30
2023-07-31T07:17:33.905Z,7.45
2023-07-31T07:20:01.543Z,8.23
2023-07-31T07:22:30.424Z,8.23
2023-07-31T07:24:57.904Z,9.00
2023-07-31T07:27:25.340Z,9.35
2023-07-31T07:29:53.795Z,9.07
2023-07-31T07:32:21.507Z,9.27
2023-07-31T07:34:49.512Z,9.05
2023-07-31T07:37:17.356Z,9.63
2023-07-31T07:39:45.014Z,9.73
2023-07-31T07:42:12.748Z,9.18
2023-07-31T07:44:40.485Z,9.57
2023-07-31T07:47:08.102Z,8.80
2023-07-31T07:49:36.072Z,8.07
2023-07-31T07:52:04.216Z,7.97
2023-07-31T07:54:31.985Z,8.98
2023-07-31T07:56:59.363Z,9.82
2023-07-31T07:59:27.036Z,8.05
2023-07-31T08:01:54.589Z,8.10
2023-07-31T08:04:22.284Z,8.70
2023-07-31T08:06:49.770Z,9.60
2023-07-31T08:09:17.194Z,8.20
2023-07-31T08:11:44.844Z,8.63
2023-07-31T08:14:12.260Z,9.20
2023-07-31T08:16:39.977Z,8.57
2023-07-31T08:19:07.910Z,9.68
2023-07-31T08:21:35.588Z,8.88
2023-07-31T08:24:03.026Z,9.40
2023-07-31T08:26:30.720Z,8.10
2023-07-31T08:28:58.758Z,8.50
2023-07-31T08:31:26.173Z,9.23
2023-07-31T08:33:53.842Z,9.15
2023-07-31T08:36:21.268Z,9.00
2023-07-31T08:38:48.638Z,8.40
2023-07-31T08:41:17.951Z,9.35
2023-07-31T08:43:48.685Z,9.65
2023-07-31T08:46:16.471Z,9.35
2023-07-31T08:48:44.064Z,9.00
2023-07-31T08:51:11.475Z,9.80
2023-07-31T08:53:39.115Z,9.10
2023-07-31T08:56:06.520Z,9.35
2023-07-31T08:58:34.112Z,9.48
2023-07-31T09:01:05.620Z,9.20
2023-07-31T09:03:35.079Z,9.48
2023-07-31T09:06:03.873Z,9.82
2023-07-31T09:08:31.759Z,9.75
2023-07-31T09:11:04.340Z,9.77
2023-07-31T09:13:32.449Z,8.90
2023-07-31T09:16:00.189Z,8.43
2023-07-31T09:18:27.741Z,8.13
2023-07-31T09:21:08.454Z,8.93
2023-07-31T09:23:45.897Z,9.55
2023-07-31T09:26:33.343Z,9.77
2023-07-31T09:29:09.312Z,9.18
2023-07-31T09:31:41.949Z,9.55
2023-07-31T09:34:09.596Z,9.13
2023-07-31T09:36:47.300Z,8.15
2023-07-31T09:39:15.407Z,9.43
2023-07-31T09:41:48.294Z,9.02
2023-07-31T09:44:15.664Z,8.30
2023-07-31T09:46:44.151Z,7.90
2023-07-31T09:49:12.731Z,8.90
2023-07-31T09:51:40.911Z,8.68
2023-07-31T09:54:15.339Z,8.50
2023-07-31T09:56:47.347Z,9.02
2023-07-31T09:59:21.868Z,9.15
2023-07-31T10:01:51.289Z,9.30
2023-07-31T10:04:21.847Z,9.82
2023-07-31T10:06:49.252Z,9.90
2023-07-31T10:09:16.746Z,9.68
2023-07-31T10:11:57.512Z,10.43
2023-07-31T10:14:25.044Z,10.27
2023-07-31T10:16:52.691Z,9.43
2023-07-31T10:19:20.134Z,9.43
2023-07-31T10:21:47.689Z,9.40
2023-07-31T10:24:15.445Z,9.15
2023-07-31T10:26:42.986Z,10.02
2023-07-31T10:29:10.447Z,8.77
2023-07-31T10:31:38.084Z,10.10
2023-07-31T10:34:05.944Z,9.73
2023-07-31T10:36:33.340Z,9.45
2023-07-31T10:39:01.033Z,9.70
2023-07-31T10:41:32.255Z,9.05
2023-07-31T10:44:03.036Z,9.50
2023-07-31T10:46:30.751Z,9.25
2023-07-31T10:49:02.318Z,9.82
2023-07-31T10:51:36.305Z,9.30
2023-07-31T10:54:13.780Z,9.70
2023-07-31T10:56:41.665Z,10.07
2023-07-31T10:59:13.652Z,10.02
2023-07-31T11:01:54.212Z,10.50
2023-07-31T11:04:28.493Z,11.05
2023-07-31T11:06:59.902Z,10.20
2023-07-31T11:09:31.869Z,10.07
2023-07-31T11:12:00.006Z,10.55
2023-07-31T11:14:27.729Z,10.15
2023-07-31T11:16:55.194Z,10.13
2023-07-31T11:19:24.696Z,10.00
2023-07-31T11:21:54.000Z,10.02
2023-07-31T11:24:21.404Z,9.82
2023-07-31T11:26:52.763Z,9.73
2023-07-31T11:29:21.319Z,9.40
2023-07-31T11:31:49.297Z,9.65
2023-07-31T11:34:18.329Z,10.07
2023-07-31T11:36:56.574Z,10.68
2023-07-31T11:39:24.001Z,10.05
2023-07-31T11:41:51.709Z,9.88
2023-07-31T11:44:27.376Z,10.40
2023-07-31T11:46:59.066Z,10.48
2023-07-31T11:49:26.898Z,9.90
2023-07-31T11:51:54.297Z,9.77
2023-07-31T11:54:22.053Z,9.38
2023-07-31T11:56:50.752Z,9.80
2023-07-31T11:59:18.211Z,9.32
2023-07-31T12:01:45.938Z,10.38
2023-07-31T12:04:13.787Z,9.95
2023-07-31T12:06:41.574Z,9.48
2023-07-31T12:09:09.152Z,9.70
2023-07-31T12:11:46.527Z,10.50
2023-07-31T12:14:27.165Z,10.25
2023-07-31T12:19:30.859Z,9.98
2023-07-31T12:22:00.066Z,10.38
2023-07-31T12:24:28.024Z,10.25
2023-07-31T12:26:56.347Z,9.38
2023-07-31T12:29:24.082Z,9.85
2023-07-31T12:31:51.644Z,10.10
2023-07-31T12:34:19.755Z,9.65
2023-07-31T12:36:47.502Z,10.52
2023-07-31T12:39:15.486Z,9.13
2023-07-31T12:41:42.882Z,9.05
2023-07-31T12:44:12.422Z,9.77
2023-07-31T12:46:40.110Z,8.63
2023-07-31T12:49:07.844Z,10.00
2023-07-31T12:51:35.497Z,9.57
2023-07-31T12:54:02.928Z,9.35
2023-07-31T12:56:30.339Z,9.48
2023-07-31T12:58:57.984Z,9.20
2023-07-31T13:01:25.415Z,9.80
2023-07-31T13:03:53.025Z,9.57
2023-07-31T13:06:20.896Z,9.23
2023-07-31T13:08:48.384Z,9.68
2023-07-31T13:11:15.849Z,10.00
2023-07-31T13:13:43.601Z,9.75
2023-07-31T13:16:11.098Z,9.40
2023-07-31T13:18:38.503Z,9.43
2023-07-31T13:21:06.200Z,9.38
2023-07-31T13:23:33.572Z,10.05
2023-07-31T13:26:00.949Z,9.40
2023-07-31T13:28:28.633Z,8.60
2023-07-31T13:30:56.167Z,9.38
2023-07-31T13:33:36.190Z,9.40
2023-07-31T13:36:05.190Z,8.88
2023-07-31T13:38:32.641Z,8.98
2023-07-31T13:41:00.294Z,8.85
2023-07-31T13:43:27.959Z,8.73
2023-07-31T13:45:55.357Z,8.48
2023-07-31T13:48:22.750Z,9.00
2023-07-31T13:50:50.382Z,9.13
2023-07-31T13:53:17.774Z,8.98
2023-07-31T13:55:46.788Z,10.00
2023-07-31T13:58:14.475Z,9.55
2023-07-31T14:00:41.881Z,9.32
2023-07-31T14:03:09.604Z,9.77
2023-07-31T14:05:37.024Z,8.88
2023-07-31T14:08:04.610Z,8.85
2023-07-31T14:10:32.228Z,8.40
2023-07-31T14:12:59.575Z,8.68
2023-07-31T14:15:27.624Z,9.88
2023-07-31T14:17:58.333Z,8.85
2023-07-31T14:20:27.388Z,8.98
2023-07-31T14:22:55.066Z,9.02
2023-07-31T14:25:22.555Z,8.57
2023-07-31T14:27:49.977Z,8.75
2023-07-31T14:30:18.208Z,8.98
2023-07-31T14:32:45.736Z,8.68
2023-07-31T14:35:13.126Z,9.15
2023-07-31T14:37:41.618Z,9.30
2023-07-31T14:40:09.589Z,9.30
2023-07-31T14:42:37.139Z,9.50
2023-07-31T14:45:05.644Z,8.93
2023-07-31T14:47:33.275Z,8.55
2023-07-31T14:50:00.952Z,9.38
2023-07-31T14:52:28.629Z,8.57
2023-07-31T14:54:56.021Z,7.95
2023-07-31T14:57:25.397Z,8.43
2023-07-31T14:59:54.418Z,9.13
2023-07-31T15:02:22.126Z,8.40
2023-07-31T15:04:49.503Z,8.63
2023-07-31T15:07:17.184Z,8.40
2023-07-31T15:09:44.565Z,8.90
2023-07-31T15:12:11.978Z,8.30
2023-07-31T15:14:39.681Z,8.60
2023-07-31T15:17:07.152Z,8.90
2023-07-31T15:19:36.138Z,8.80
2023-07-31T15:22:04.710Z,8.48
2023-07-31T15:24:32.339Z,8.82
2023-07-31T15:26:59.963Z,8.88
2023-07-31T15:29:27.663Z,8.50
2023-07-31T15:31:55.062Z,8.30
2023-07-31T15:34:22.464Z,8.38
2023-07-31T15:36:50.135Z,8.25
2023-07-31T15:39:17.529Z,8.70
2023-07-31T15:41:45.022Z,8.70
2023-07-31T15:44:12.810Z,9.50
2023-07-31T15:46:40.390Z,9.50
2023-07-31T15:49:08.026Z,8.80
2023-07-31T15:51:35.714Z,8.32
2023-07-31T15:54:03.182Z,9.02
2023-07-31T15:56:30.535Z,9.15
2023-07-31T15:58:59.628Z,8.77
2023-07-31T16:01:27.190Z,8.88
2023-07-31T16:03:54.968Z,8.88
2023-07-31T16:06:22.385Z,8.90
2023-07-31T16:08:49.942Z,8.73
2023-07-31T16:11:17.569Z,8.48
2023-07-31T16:13:44.997Z,9.02
2023-07-31T16:16:12.406Z,9.75
2023-07-31T16:18:40.097Z,8.85
2023-07-31T16:21:07.529Z,10.00
2023-07-31T16:23:34.941Z,8.23
2023-07-31T16:26:02.651Z,8.02
2023-07-31T16:28:30.095Z,8.13
2023-07-31T16:30:57.485Z,8.20
2023-07-31T16:33:25.305Z,8.45
2023-07-31T16:35:52.725Z,9.18
2023-07-31T16:38:20.125Z,8.63
2023-07-31T16:40:48.384Z,8.23
2023-07-31T16:43:15.851Z,9.45
2023-07-31T16:45:43.344Z,8.43
2023-07-31T16:48:11.126Z,8.25
2023-07-31T16:50:38.571Z,8.68
2023-07-31T16:53:05.929Z,8.32
2023-07-31T16:55:35.222Z,8.20
2023-07-31T16:58:02.591Z,8.35
2023-07-31T17:00:30.691Z,9.73
2023-07-31T17:02:59.048Z,9.75
2023-07-31T17:05:26.602Z,9.23
2023-07-31T17:07:54.024Z,9.02
2023-07-31T17:10:21.683Z,8.98
2023-07-31T17:12:49.069Z,9.07
2023-07-31T17:15:16.528Z,8.95
2023-07-31T17:17:44.231Z,8.32
2023-07-31T17:20:12.829Z,8.55
2023-07-31T17:22:48.599Z,9.25
2023-07-31T17:25:20.119Z,8.73
2023-07-31T17:27:50.048Z,9.05
2023-07-31T17:30:19.094Z,9.00
2023-07-31T17:32:46.540Z,8.25
2023-07-31T17:35:13.992Z,9.63
2023-07-31T17:37:41.659Z,9.18
2023-07-31T17:40:09.553Z,8.95
2023-07-31T17:42:36.926Z,8.70
2023-07-31T17:45:04.905Z,8.07
2023-07-31T17:47:32.360Z,8.50
2023-07-31T17:49:59.824Z,8.40
2023-07-31T17:52:27.484Z,7.93
2023-07-31T17:54:55.383Z,7.90
2023-07-31T17:57:22.887Z,8.05
2023-07-31T17:59:52.091Z,9.13
2023-07-31T18:02:20.011Z,8.85
2023-07-31T18:04:47.801Z,8.68
2023-07-31T18:07:15.192Z,9.48
2023-07-31T18:09:42.616Z,8.45
2023-07-31T18:12:10.312Z,8.02
2023-07-31T18:14:38.929Z,7.82
2023-07-31T18:17:06.827Z,8.68
2023-07-31T18:19:34.629Z,8.75
2023-07-31T18:22:02.110Z,8.27
2023-07-31T18:24:29.521Z,8.60
2023-07-31T18:26:57.802Z,8.98
2023-07-31T18:29:25.628Z,8.45
2023-07-31T18:31:53.056Z,7.93
2023-07-31T18:34:20.723Z,8.13
2023-07-31T18:36:48.112Z,8.63
2023-07-31T18:39:15.508Z,8.70
2023-07-31T18:41:43.187Z,8.85
2023-07-31T18:44:10.718Z,8.90
2023-07-31T18:46:38.531Z,8.38
2023-07-31T18:49:06.540Z,9.25
2023-07-31T18:51:38.509Z,8.63
2023-07-31T18:54:06.500Z,8.93
2023-07-31T18:56:34.115Z,9.30
2023-07-31T18:59:02.174Z,8.88
2023-07-31T19:01:29.841Z,8.25
2023-07-31T19:03:59.395Z,9.35
2023-07-31T19:06:26.885Z,8.85
2023-07-31T19:08:58.306Z,8.65
2023-07-31T19:11:32.512Z,8.20
2023-07-31T19:14:01.299Z,8.60
2023-07-31T19:16:28.905Z,7.97
2023-07-31T19:18:56.438Z,8.23
2023-07-31T19:21:24.157Z,8.57
2023-07-31T19:23:51.659Z,8.88
2023-07-31T19:26:19.320Z,8.40
2023-07-31T19:28:46.958Z,8.18
2023-07-31T19:31:14.369Z,8.63
2023-07-31T19:33:41.793Z,8.68
2023-07-31T19:36:09.444Z,9.07
2023-07-31T19:38:37.050Z,8.13
2023-07-31T19:41:05.054Z,9.27
2023-07-31T19:43:32.669Z,8.82
2023-07-31T19:46:00.082Z,8.57
2023-07-31T19:48:27.581Z,8.70
2023-07-31T19:50:55.256Z,8.68
2023-07-31T19:53:22.635Z,8.90
2023-07-31T19:55:50.370Z,9.77
2023-07-31T19:58:18.082Z,9.55
2023-07-31T20:00:45.430Z,9.07
2023-07-31T20:03:13.106Z,8.63
2023-07-31T20:05:42.307Z,8.32
2023-07-31T20:08:09.716Z,8.20
2023-07-31T20:10:37.413Z,8.68
2023-07-31T20:13:04.786Z,8.13
2023-07-31T20:15:32.202Z,8.05
2023-07-31T20:17:59.903Z,7.90
2023-07-31T20:20:27.316Z,7.68
2023-07-31T20:22:54.760Z,8.88
2023-07-31T20:25:22.438Z,8.05
2023-07-31T20:27:49.819Z,8.57
2023-07-31T20:30:17.244Z,7.68
2023-07-31T20:32:45.684Z,9.02
2023-07-31T20:35:13.139Z,8.20
2023-07-31T20:37:40.535Z,8.73
2023-07-31T20:40:08.872Z,8.73
2023-07-31T20:42:36.316Z,8.25
2023-07-31T20:45:03.953Z,8.30
2023-07-31T20:47:31.923Z,9.30
2023-07-31T20:49:59.313Z,9.05
2023-07-31T20:52:26.713Z,8.23
2023-07-31T20:54:54.348Z,8.50
2023-07-31T20:57:21.763Z,8.75
2023-07-31T20:59:49.204Z,7.62
2023-07-31T21:02:16.934Z,8.63
2023-07-31T21:04:44.433Z,8.15
2023-07-31T21:07:16.025Z,8.48
2023-07-31T21:09:48.540Z,7.50
2023-07-31T21:12:16.069Z,7.97
2023-07-31T21:14:43.899Z,6.90
2023-07-31T21:17:11.594Z,8.05
2023-07-31T21:19:38.997Z,8.02
2023-07-31T21:22:06.730Z,8.02
2023-07-31T21:24:34.122Z,8.23
2023-07-31T21:27:01.492Z,9.00
2023-07-31T21:29:29.162Z,7.12
2023-07-31T21:31:57.866Z,7.50
2023-07-31T21:34:25.508Z,7.40
2023-07-31T21:36:53.179Z,7.53
2023-07-31T21:39:21.263Z,7.65
2023-07-31T21:41:48.658Z,7.93
2023-07-31T21:44:16.302Z,7.62
2023-07-31T21:46:43.970Z,7.45
2023-07-31T21:49:11.580Z,7.37
2023-07-31T21:51:39.254Z,7.85
2023-07-31T21:54:06.700Z,7.47
2023-07-31T21:56:34.071Z,7.40
2023-07-31T21:59:01.765Z,7.57
2023-07-31T22:01:29.128Z,7.18
2023-07-31T22:03:56.810Z,7.35
2023-07-31T22:06:24.194Z,7.10
2023-07-31T22:08:51.613Z,7.97
2023-07-31T22:11:21.467Z,7.68
2023-07-31T22:13:49.030Z,7.30
2023-07-31T22:16:16.474Z,6.70
2023-07-31T22:18:44.278Z,7.05
2023-07-31T22:21:11.714Z,7.78
2023-07-31T22:23:39.119Z,7.78
2023-07-31T22:26:06.801Z,7.10
2023-07-31T22:28:34.210Z,6.75
2023-07-31T22:31:01.610Z,6.70
2023-07-31T22:33:29.231Z,6.45
2023-07-31T22:35:56.643Z,6.68
2023-07-31T22:38:24.026Z,6.78
2023-07-31T22:40:51.660Z,6.50
2023-07-31T22:43:19.099Z,6.93
2023-07-31T22:45:47.088Z,6.50
2023-07-31T22:48:14.789Z,7.03
2023-07-31T22:50:42.282Z,6.85
2023-07-31T22:53:09.733Z,7.25
2023-07-31T22:55:37.420Z,6.93
2023-07-31T22:58:04.857Z,6.45
2023-07-31T23:00:32.332Z,7.22
2023-07-31T23:03:00.073Z,6.53
2023-07-31T23:05:27.550Z,6.80
2023-07-31T23:07:54.988Z,6.60
2023-07-31T23:10:22.624Z,6.47
2023-07-31T23:12:49.985Z,6.37
2023-07-31T23:15:17.397Z,6.35
2023-07-31T23:17:45.143Z,6.70
2023-07-31T23:20:12.562Z,6.85
2023-07-31T23:22:39.982Z,6.50
2023-07-31T23:25:08.025Z,6.62
2023-07-31T23:27:35.415Z,6.55
2023-07-31T23:30:02.989Z,6.47
2023-07-31T23:32:30.693Z,6.57
2023-07-31T23:34:58.138Z,6.40
2023-07-31T23:37:25.550Z,6.82
2023-07-31T23:39:53.218Z,6.53
2023-07-31T23:42:20.602Z,6.75
2023-07-31T23:44:56.757Z,6.75
2023-07-31T23:47:32.591Z,6.60
2023-07-31T23:50:00.194Z,7.15
2023-07-31T23:52:27.593Z,7.30
2023-07-31T23:54:55.297Z,7.65
2023-07-31T23:57:22.730Z,6.97
2023-07-31T23:59:50.140Z,6.32
